createdAt,value
2018-05-09T00:01:19.165Z,23.25
2018-05-09T00:03:46.823Z,23.21
2018-05-09T00:06:14.512Z,23.16
2018-05-09T00:08:42.143Z,23.11
2018-05-09T00:11:09.669Z,23.07
2018-05-09T00:13:37.388Z,23.03
2018-05-09T00:16:04.943Z,22.99
2018-05-09T00:18:32.525Z,22.93
2018-05-09T00:21:00.111Z,22.88
2018-05-09T00:23:27.698Z,22.85
2018-05-09T00:25:55.245Z,22.81
2018-05-09T00:28:22.863Z,22.79
2018-05-09T00:30:50.409Z,22.75
2018-05-09T00:33:17.967Z,22.72
2018-05-09T00:35:45.487Z,22.68
2018-05-09T00:38:13.151Z,22.64
2018-05-09T00:40:40.765Z,22.62
2018-05-09T00:43:08.385Z,22.58
2018-05-09T00:45:35.942Z,22.53
2018-05-09T00:48:03.488Z,22.49
2018-05-09T00:50:31.100Z,22.45
2018-05-09T00:52:58.692Z,22.42
2018-05-09T00:55:26.276Z,22.38
2018-05-09T00:57:53.821Z,22.31
2018-05-09T01:00:21.398Z,22.26
2018-05-09T01:02:48.936Z,22.22
2018-05-09T01:05:16.488Z,22.17
2018-05-09T01:07:44.052Z,22.13
2018-05-09T01:10:11.598Z,22.10
2018-05-09T01:12:39.222Z,22.06
2018-05-09T01:15:06.769Z,22.02
2018-05-09T01:17:34.320Z,22.00
2018-05-09T01:20:01.888Z,21.95
2018-05-09T01:22:29.453Z,21.94
2018-05-09T01:24:57.018Z,21.91
2018-05-09T01:27:24.565Z,21.89
2018-05-09T01:29:52.130Z,21.85
2018-05-09T01:32:19.781Z,21.82
2018-05-09T01:34:47.319Z,21.79
2018-05-09T01:37:14.865Z,21.76
2018-05-09T01:39:42.400Z,21.74
2018-05-09T01:42:09.943Z,21.72
2018-05-09T01:44:37.505Z,21.69
2018-05-09T01:47:05.043Z,21.67
2018-05-09T01:49:33.319Z,21.65
2018-05-09T01:52:00.871Z,21.63
2018-05-09T01:54:28.457Z,21.60
2018-05-09T01:56:55.995Z,21.58
2018-05-09T01:59:23.518Z,21.55
2018-05-09T02:01:52.422Z,21.53
2018-05-09T02:04:19.980Z,21.51
2018-05-09T02:06:47.517Z,21.48
2018-05-09T02:09:15.965Z,21.47
2018-05-09T02:11:43.592Z,21.44
2018-05-09T02:14:11.185Z,21.43
2018-05-09T02:16:38.756Z,21.41
2018-05-09T02:19:06.304Z,21.38
2018-05-09T02:21:33.893Z,21.37
2018-05-09T02:24:01.538Z,21.35
2018-05-09T02:26:29.038Z,21.33
2018-05-09T02:28:56.601Z,21.31
2018-05-09T02:31:24.218Z,21.29
2018-05-09T02:33:51.778Z,21.26
2018-05-09T02:36:19.332Z,21.26
2018-05-09T02:38:46.883Z,21.23
2018-05-09T02:41:14.473Z,21.20
2018-05-09T02:43:42.012Z,21.18
2018-05-09T02:46:09.591Z,21.16
2018-05-09T02:48:37.181Z,21.15
2018-05-09T02:51:04.748Z,21.14
2018-05-09T02:53:32.301Z,21.13
2018-05-09T02:55:59.916Z,21.12
2018-05-09T02:58:27.458Z,21.10
2018-05-09T03:00:55.037Z,21.10
2018-05-09T03:03:22.593Z,21.10
2018-05-09T03:05:50.186Z,21.07
2018-05-09T03:08:18.561Z,21.08
2018-05-09T03:10:46.170Z,21.08
2018-05-09T03:13:13.973Z,21.07
2018-05-09T03:15:41.585Z,21.08
2018-05-09T03:18:09.123Z,21.09
2018-05-09T03:20:36.694Z,21.09
2018-05-09T03:23:04.235Z,21.09
2018-05-09T03:25:31.805Z,21.07
2018-05-09T03:27:59.355Z,21.06
2018-05-09T03:30:26.974Z,21.08
2018-05-09T03:32:54.556Z,21.06
2018-05-09T03:35:22.145Z,21.05
2018-05-09T03:37:49.752Z,21.04
2018-05-09T03:40:17.356Z,21.01
2018-05-09T03:42:44.912Z,21.01
2018-05-09T03:45:12.463Z,21.02
2018-05-09T03:47:40.038Z,21.00
2018-05-09T03:50:07.640Z,21.00
2018-05-09T03:52:35.272Z,20.99
2018-05-09T03:55:02.865Z,20.99
2018-05-09T03:57:30.482Z,20.99
2018-05-09T03:59:58.055Z,20.98
2018-05-09T04:02:44.158Z,20.99
2018-05-09T04:05:23.284Z,20.98
2018-05-09T04:08:02.602Z,20.98
2018-05-09T04:10:30.989Z,20.96
2018-05-09T04:12:58.582Z,20.95
2018-05-09T04:15:26.140Z,20.95
2018-05-09T04:17:53.733Z,20.96
2018-05-09T04:20:21.297Z,20.96
2018-05-09T04:22:48.900Z,20.96
2018-05-09T04:25:16.519Z,20.98
2018-05-09T04:27:44.105Z,21.01
2018-05-09T04:30:11.697Z,21.02
2018-05-09T04:32:39.267Z,21.06
2018-05-09T04:35:06.857Z,21.09
2018-05-09T04:37:34.445Z,21.12
2018-05-09T04:40:02.050Z,21.11
2018-05-09T04:42:29.618Z,21.14
2018-05-09T04:44:57.221Z,21.16
2018-05-09T04:47:24.820Z,21.19
2018-05-09T04:49:52.450Z,21.21
2018-05-09T04:52:20.094Z,21.24
2018-05-09T04:54:47.775Z,21.28
2018-05-09T04:57:15.415Z,21.31
2018-05-09T04:59:42.994Z,21.34
2018-05-09T05:02:10.623Z,21.37
2018-05-09T05:04:38.170Z,21.41
2018-05-09T05:07:05.786Z,21.46
2018-05-09T05:09:33.621Z,21.51
2018-05-09T05:12:02.579Z,21.56
2018-05-09T05:14:30.160Z,21.62
2018-05-09T05:19:29.552Z,21.75
2018-05-09T05:21:57.126Z,21.81
2018-05-09T05:24:24.747Z,21.88
2018-05-09T05:26:52.415Z,21.95
2018-05-09T05:29:21.343Z,22.04
2018-05-09T05:31:48.989Z,22.12
2018-05-09T05:34:17.036Z,22.20
2018-05-09T05:36:44.593Z,22.30
2018-05-09T05:39:12.358Z,22.42
2018-05-09T05:41:39.988Z,22.52
2018-05-09T05:44:08.388Z,22.66
2018-05-09T05:46:36.014Z,22.83
2018-05-09T05:49:03.602Z,23.13
2018-05-09T05:51:31.204Z,23.53
2018-05-09T05:53:58.813Z,24.05
2018-05-09T05:56:26.376Z,24.63
2018-05-09T05:58:53.928Z,25.20
2018-05-09T06:01:21.512Z,25.79
2018-05-09T06:03:49.083Z,26.38
2018-05-09T06:06:16.676Z,26.94
2018-05-09T06:08:44.249Z,27.47
2018-05-09T06:11:11.796Z,27.97
2018-05-09T06:13:39.440Z,28.44
2018-05-09T06:16:07.384Z,28.95
2018-05-09T06:18:35.023Z,29.46
2018-05-09T06:21:02.573Z,29.93
2018-05-09T06:23:30.241Z,30.37
2018-05-09T06:25:57.879Z,30.76
2018-05-09T06:28:25.468Z,31.21
2018-05-09T06:30:53.123Z,31.68
2018-05-09T06:33:20.728Z,32.06
2018-05-09T06:35:48.266Z,32.44
2018-05-09T06:38:15.860Z,32.77
2018-05-09T06:40:43.396Z,32.99
2018-05-09T06:43:11.047Z,33.18
2018-05-09T06:45:38.608Z,33.33
2018-05-09T06:48:06.225Z,33.57
2018-05-09T06:50:34.686Z,33.89
2018-05-09T06:53:02.232Z,34.18
2018-05-09T06:55:29.872Z,34.51
2018-05-09T06:57:57.458Z,34.68
2018-05-09T07:00:25.036Z,34.97
2018-05-09T07:02:52.689Z,35.30
2018-05-09T07:05:20.308Z,35.77
2018-05-09T07:07:47.853Z,36.04
2018-05-09T07:10:15.461Z,35.98
2018-05-09T07:12:43.141Z,35.98
2018-05-09T07:15:10.690Z,35.92
2018-05-09T07:17:38.302Z,35.58
2018-05-09T07:20:05.944Z,35.64
2018-05-09T07:22:33.569Z,35.80
2018-05-09T07:25:01.193Z,36.25
2018-05-09T07:27:28.779Z,36.77
2018-05-09T07:29:56.355Z,37.23
2018-05-09T07:32:23.879Z,37.62
2018-05-09T07:34:51.742Z,37.82
2018-05-09T07:37:19.277Z,38.22
2018-05-09T07:39:46.818Z,38.71
2018-05-09T07:42:14.420Z,39.19
2018-05-09T07:44:41.928Z,39.51
2018-05-09T07:47:09.450Z,39.60
2018-05-09T07:49:37.001Z,39.78
2018-05-09T07:52:04.519Z,39.84
2018-05-09T07:54:32.124Z,40.10
2018-05-09T07:56:59.657Z,40.16
2018-05-09T07:59:27.205Z,40.19
2018-05-09T08:01:54.745Z,40.59
2018-05-09T08:04:22.309Z,41.10
2018-05-09T08:06:49.875Z,41.49
2018-05-09T08:09:17.437Z,41.83
2018-05-09T08:11:44.983Z,41.90
2018-05-09T08:14:12.551Z,41.97
2018-05-09T08:16:40.086Z,42.26
2018-05-09T08:19:07.665Z,42.72
2018-05-09T08:21:35.235Z,43.02
2018-05-09T08:24:05.422Z,43.13
2018-05-09T08:26:33.124Z,43.27
2018-05-09T08:29:00.703Z,43.55
2018-05-09T08:31:28.355Z,43.76
2018-05-09T08:33:55.963Z,44.02
2018-05-09T08:36:24.403Z,44.05
2018-05-09T08:38:51.996Z,44.21
2018-05-09T08:41:19.559Z,44.25
2018-05-09T08:43:47.118Z,44.37
2018-05-09T08:46:14.728Z,44.59
2018-05-09T08:48:42.359Z,45.01
2018-05-09T08:51:09.908Z,45.39
2018-05-09T08:53:37.434Z,45.83
2018-05-09T08:56:05.648Z,46.01
2018-05-09T08:58:33.211Z,46.24
2018-05-09T09:01:00.916Z,46.44
2018-05-09T09:03:28.456Z,46.59
2018-05-09T09:05:56.017Z,46.75
2018-05-09T09:08:23.585Z,46.87
2018-05-09T09:10:51.140Z,46.93
2018-05-09T09:13:18.680Z,47.12
2018-05-09T09:15:46.224Z,47.02
2018-05-09T09:18:13.774Z,47.07
2018-05-09T09:20:41.335Z,47.31
2018-05-09T09:23:08.899Z,47.39
2018-05-09T09:25:37.553Z,47.21
2018-05-09T09:28:05.080Z,47.25
2018-05-09T09:30:32.637Z,47.45
2018-05-09T09:33:00.159Z,47.54
2018-05-09T09:35:27.720Z,47.85
2018-05-09T09:37:55.282Z,48.27
2018-05-09T09:40:22.929Z,48.64
2018-05-09T09:42:50.478Z,49.17
2018-05-09T09:45:18.139Z,49.70
2018-05-09T09:47:45.830Z,50.17
2018-05-09T09:50:13.414Z,50.40
2018-05-09T09:52:41.077Z,50.43
2018-05-09T09:55:08.610Z,50.62
2018-05-09T09:57:36.156Z,50.95
2018-05-09T10:00:03.715Z,51.15
2018-05-09T10:02:31.280Z,51.05
2018-05-09T10:04:58.812Z,50.90
2018-05-09T10:07:26.386Z,50.49
2018-05-09T10:09:53.908Z,50.46
2018-05-09T10:12:21.513Z,50.77
2018-05-09T10:14:49.057Z,51.46
2018-05-09T10:17:16.650Z,51.76
2018-05-09T10:19:44.185Z,52.07
2018-05-09T10:22:11.735Z,51.99
2018-05-09T10:24:39.299Z,51.78
2018-05-09T10:27:07.042Z,51.55
2018-05-09T10:29:34.611Z,51.52
2018-05-09T10:32:02.203Z,51.94
2018-05-09T10:34:29.740Z,52.54
2018-05-09T10:36:57.387Z,52.92
2018-05-09T10:39:24.936Z,53.30
2018-05-09T10:41:52.518Z,53.11
2018-05-09T10:44:20.087Z,52.80
2018-05-09T10:46:47.740Z,52.48
2018-05-09T10:49:15.308Z,52.28
2018-05-09T10:51:42.851Z,52.10
2018-05-09T10:54:10.395Z,52.07
2018-05-09T10:56:37.976Z,52.24
2018-05-09T10:59:05.517Z,52.58
2018-05-09T11:01:33.093Z,53.00
2018-05-09T11:04:00.659Z,53.30
2018-05-09T11:06:28.250Z,53.57
2018-05-09T11:08:55.798Z,53.08
2018-05-09T11:11:23.350Z,53.05
2018-05-09T11:13:50.891Z,52.82
2018-05-09T11:16:18.399Z,52.60
2018-05-09T11:18:46.047Z,52.29
2018-05-09T11:21:13.622Z,52.22
2018-05-09T11:23:41.160Z,51.84
2018-05-09T11:26:10.243Z,50.68
2018-05-09T11:28:37.828Z,49.48
2018-05-09T11:31:05.426Z,48.33
2018-05-09T11:33:33.019Z,46.90
2018-05-09T11:36:00.555Z,45.63
2018-05-09T11:38:28.126Z,44.62
2018-05-09T11:40:55.664Z,43.61
2018-05-09T11:43:23.217Z,42.50
2018-05-09T11:45:50.765Z,41.48
2018-05-09T11:48:19.490Z,40.57
2018-05-09T11:50:47.043Z,40.08
2018-05-09T11:53:15.095Z,39.62
2018-05-09T11:55:42.703Z,39.17
2018-05-09T11:58:10.264Z,39.00
2018-05-09T12:00:37.828Z,38.77
2018-05-09T12:03:05.382Z,38.60
2018-05-09T12:05:32.942Z,38.34
2018-05-09T12:08:01.437Z,38.09
2018-05-09T12:10:29.628Z,38.04
2018-05-09T12:12:57.208Z,37.97
2018-05-09T12:15:24.782Z,37.95
2018-05-09T12:17:52.358Z,37.98
2018-05-09T12:20:19.882Z,38.12
2018-05-09T12:22:47.429Z,38.17
2018-05-09T12:25:14.980Z,38.08
2018-05-09T12:27:42.617Z,37.93
2018-05-09T12:30:10.161Z,37.89
2018-05-09T12:32:37.717Z,38.11
2018-05-09T12:35:05.241Z,38.23
2018-05-09T12:37:32.812Z,38.36
2018-05-09T12:40:00.454Z,37.99
2018-05-09T12:42:28.119Z,37.60
2018-05-09T12:44:56.261Z,37.31
2018-05-09T12:47:23.814Z,37.04
2018-05-09T12:49:51.461Z,36.85
2018-05-09T12:52:19.032Z,36.49
2018-05-09T12:54:46.578Z,36.19
2018-05-09T12:57:15.078Z,35.88
2018-05-09T12:59:42.637Z,35.66
2018-05-09T13:02:10.247Z,35.65
2018-05-09T13:04:37.945Z,35.85
2018-05-09T13:07:05.513Z,35.83
2018-05-09T13:09:33.422Z,35.83
2018-05-09T13:12:00.940Z,35.89
2018-05-09T13:14:28.478Z,35.92
2018-05-09T13:16:56.057Z,35.92
2018-05-09T13:19:23.610Z,35.80
2018-05-09T13:21:51.129Z,35.71
2018-05-09T13:24:18.705Z,35.72
2018-05-09T13:26:46.297Z,35.76
2018-05-09T13:29:13.905Z,35.61
2018-05-09T13:31:41.501Z,35.71
2018-05-09T13:34:09.024Z,35.53
2018-05-09T13:36:36.615Z,35.49
2018-05-09T13:39:04.251Z,35.16
2018-05-09T13:41:31.777Z,35.00
2018-05-09T13:44:00.194Z,35.02
2018-05-09T13:46:27.842Z,35.04
2018-05-09T13:48:55.309Z,35.01
2018-05-09T13:51:22.855Z,34.96
2018-05-09T13:53:50.518Z,34.93
2018-05-09T13:56:17.955Z,34.97
2018-05-09T13:58:45.499Z,35.01
2018-05-09T14:01:13.022Z,35.00
2018-05-09T14:03:40.598Z,35.00
2018-05-09T14:06:08.196Z,34.89
2018-05-09T14:08:35.776Z,34.88
2018-05-09T14:11:03.316Z,34.93
2018-05-09T14:13:30.893Z,34.98
2018-05-09T14:15:58.442Z,34.99
2018-05-09T14:18:26.065Z,34.93
2018-05-09T14:20:53.704Z,34.98
2018-05-09T14:23:21.230Z,34.87
2018-05-09T14:25:48.782Z,34.77
2018-05-09T14:28:16.316Z,34.59
2018-05-09T14:30:46.407Z,34.54
2018-05-09T14:33:14.145Z,34.54
2018-05-09T14:35:41.709Z,34.43
2018-05-09T14:38:09.377Z,34.45
2018-05-09T14:40:36.989Z,34.54
2018-05-09T14:43:04.504Z,34.68
2018-05-09T14:45:32.086Z,34.68
2018-05-09T14:48:02.487Z,34.65
2018-05-09T14:50:30.124Z,34.57
2018-05-09T14:52:57.676Z,34.40
2018-05-09T14:55:25.265Z,34.34
2018-05-09T14:57:52.799Z,34.32
2018-05-09T15:00:20.469Z,34.24
2018-05-09T15:02:48.001Z,34.13
2018-05-09T15:05:15.583Z,34.07
2018-05-09T15:07:43.167Z,33.95
2018-05-09T15:10:10.782Z,33.86
2018-05-09T15:12:38.435Z,33.76
2018-05-09T15:15:06.474Z,33.79
2018-05-09T15:17:34.067Z,33.77
2018-05-09T15:20:01.720Z,33.77
2018-05-09T15:22:29.412Z,33.76
2018-05-09T15:24:57.078Z,33.71
2018-05-09T15:27:24.725Z,33.61
2018-05-09T15:29:52.362Z,33.39
2018-05-09T15:32:19.971Z,33.32
2018-05-09T15:34:47.595Z,33.23
2018-05-09T15:37:15.209Z,33.10
2018-05-09T15:39:42.872Z,33.03
2018-05-09T15:42:10.451Z,32.88
2018-05-09T15:44:38.104Z,32.77
2018-05-09T15:47:06.008Z,32.74
2018-05-09T15:49:33.703Z,32.69
2018-05-09T15:52:01.442Z,32.61
2018-05-09T15:54:29.294Z,32.60
2018-05-09T15:56:57.010Z,32.59
2018-05-09T15:59:24.972Z,32.56
2018-05-09T16:01:52.624Z,32.50
2018-05-09T16:04:21.004Z,32.48
2018-05-09T16:06:48.536Z,32.39
2018-05-09T16:09:16.099Z,32.32
2018-05-09T16:11:43.693Z,32.27
2018-05-09T16:14:11.268Z,32.11
2018-05-09T16:16:38.917Z,32.10
2018-05-09T16:19:06.441Z,32.05
2018-05-09T16:21:34.016Z,31.95
2018-05-09T16:24:02.485Z,31.90
2018-05-09T16:26:30.112Z,31.86
2018-05-09T16:28:59.573Z,31.74
2018-05-09T16:31:27.114Z,31.73
2018-05-09T16:33:54.661Z,31.67
2018-05-09T16:36:22.315Z,31.62
2018-05-09T16:38:49.794Z,31.62
2018-05-09T16:41:17.364Z,31.62
2018-05-09T16:43:44.942Z,31.62
2018-05-09T16:46:12.498Z,31.61
2018-05-09T16:48:40.033Z,31.57
2018-05-09T16:51:07.599Z,31.53
2018-05-09T16:53:35.163Z,31.54
2018-05-09T16:56:02.752Z,31.54
2018-05-09T16:58:30.325Z,31.54
2018-05-09T17:00:57.868Z,31.52
2018-05-09T17:03:25.444Z,31.50
2018-05-09T17:05:53.013Z,31.43
2018-05-09T17:08:20.541Z,31.46
2018-05-09T17:10:48.130Z,31.46
2018-05-09T17:13:15.647Z,31.44
2018-05-09T17:15:43.868Z,31.41
2018-05-09T17:18:11.410Z,31.37
2018-05-09T17:20:39.032Z,31.35
2018-05-09T17:23:06.608Z,31.34
2018-05-09T17:25:34.152Z,31.30
2018-05-09T17:28:01.719Z,31.20
2018-05-09T17:30:29.347Z,31.18
2018-05-09T17:32:56.869Z,31.09
2018-05-09T17:35:24.426Z,30.98
2018-05-09T17:37:52.000Z,30.93
2018-05-09T17:40:19.559Z,30.80
2018-05-09T17:42:47.112Z,30.77
2018-05-09T17:45:14.826Z,30.71
2018-05-09T17:47:42.412Z,30.62
2018-05-09T17:50:10.000Z,30.53
2018-05-09T17:52:37.575Z,30.45
2018-05-09T17:55:05.177Z,30.39
2018-05-09T17:57:32.782Z,30.33
2018-05-09T18:00:00.367Z,30.26
2018-05-09T18:02:27.950Z,30.19
2018-05-09T18:04:55.516Z,30.10
2018-05-09T18:07:23.104Z,30.10
2018-05-09T18:09:50.689Z,30.07
2018-05-09T18:12:18.226Z,30.03
2018-05-09T18:14:45.819Z,29.98
2018-05-09T18:17:13.571Z,29.93
2018-05-09T18:19:41.176Z,29.89
2018-05-09T18:22:08.755Z,29.86
2018-05-09T18:24:36.316Z,29.82
2018-05-09T18:27:03.882Z,29.78
2018-05-09T18:29:31.450Z,29.73
2018-05-09T18:31:59.068Z,29.67
2018-05-09T18:34:26.865Z,29.62
2018-05-09T18:36:54.447Z,29.58
2018-05-09T18:39:21.977Z,29.53
2018-05-09T18:41:49.517Z,29.48
2018-05-09T18:44:17.119Z,29.43
2018-05-09T18:46:44.673Z,29.32
2018-05-09T18:49:12.249Z,29.32
2018-05-09T18:51:39.792Z,29.22
2018-05-09T18:54:07.475Z,29.18
2018-05-09T18:56:35.007Z,29.11
2018-05-09T18:59:02.576Z,28.99
2018-05-09T19:01:30.159Z,28.99
2018-05-09T19:03:57.738Z,28.94
2018-05-09T19:06:25.425Z,28.89
2018-05-09T19:08:52.953Z,28.86
2018-05-09T19:11:20.496Z,28.83
2018-05-09T19:13:48.076Z,28.81
2018-05-09T19:16:15.659Z,28.79
2018-05-09T19:18:43.259Z,28.76
2018-05-09T19:21:10.907Z,28.73
2018-05-09T19:23:38.438Z,28.72
2018-05-09T19:26:06.053Z,28.71
2018-05-09T19:28:33.659Z,28.70
2018-05-09T19:31:01.246Z,28.68
2018-05-09T19:33:29.128Z,28.67
2018-05-09T19:35:56.902Z,28.62
2018-05-09T19:38:24.466Z,28.58
2018-05-09T19:40:52.063Z,28.55
2018-05-09T19:43:19.657Z,28.52
2018-05-09T19:45:47.199Z,28.49
2018-05-09T19:48:14.824Z,28.47
2018-05-09T19:50:42.380Z,28.45
2018-05-09T19:53:09.951Z,28.35
2018-05-09T19:55:37.517Z,28.35
2018-05-09T19:58:05.085Z,28.32
2018-05-09T20:00:32.674Z,28.27
2018-05-09T20:03:00.260Z,28.21
2018-05-09T20:05:27.846Z,28.14
2018-05-09T20:07:55.466Z,28.09
2018-05-09T20:10:23.054Z,28.04
2018-05-09T20:12:50.645Z,27.99
2018-05-09T20:15:18.264Z,27.93
2018-05-09T20:17:45.905Z,27.89
2018-05-09T20:20:13.483Z,27.85
2018-05-09T20:22:41.057Z,27.82
2018-05-09T20:25:08.675Z,27.81
2018-05-09T20:27:36.264Z,27.77
2018-05-09T20:30:03.837Z,27.75
2018-05-09T20:32:42.418Z,27.71
2018-05-09T20:35:09.976Z,27.68
2018-05-09T20:37:37.565Z,27.65
2018-05-09T20:40:05.299Z,27.65
2018-05-09T20:42:32.889Z,27.65
2018-05-09T20:45:00.448Z,27.62
2018-05-09T20:47:27.988Z,27.54
2018-05-09T20:49:55.552Z,27.51
2018-05-09T20:52:23.109Z,27.46
2018-05-09T20:54:50.674Z,27.41
2018-05-09T20:57:18.355Z,27.40
2018-05-09T20:59:45.934Z,27.39
2018-05-09T21:02:13.582Z,27.35
2018-05-09T21:04:41.243Z,27.34
2018-05-09T21:07:08.857Z,27.32
2018-05-09T21:09:36.458Z,27.29
2018-05-09T21:12:09.888Z,27.27
2018-05-09T21:14:37.602Z,27.23
2018-05-09T21:17:05.179Z,27.20
2018-05-09T21:19:32.781Z,27.20
2018-05-09T21:22:00.389Z,27.19
2018-05-09T21:24:28.011Z,27.20
2018-05-09T21:26:55.603Z,27.18
2018-05-09T21:29:23.157Z,27.15
2018-05-09T21:31:50.773Z,27.14
2018-05-09T21:34:18.314Z,27.14
2018-05-09T21:36:45.874Z,27.13
2018-05-09T21:39:13.425Z,27.15
2018-05-09T21:41:40.947Z,27.15
2018-05-09T21:44:08.555Z,27.14
2018-05-09T21:46:36.144Z,27.09
2018-05-09T21:49:03.669Z,27.06
2018-05-09T21:51:31.229Z,27.03
2018-05-09T21:53:58.770Z,27.03
2018-05-09T21:56:26.324Z,27.02
2018-05-09T21:58:53.860Z,27.03
2018-05-09T22:01:23.254Z,27.05
2018-05-09T22:03:50.825Z,27.05
2018-05-09T22:06:18.401Z,27.06
2018-05-09T22:08:46.139Z,27.06
2018-05-09T22:11:13.677Z,27.04
2018-05-09T22:13:41.232Z,27.02
2018-05-09T22:16:08.808Z,26.99
2018-05-09T22:18:36.355Z,26.98
2018-05-09T22:21:03.940Z,26.95
2018-05-09T22:23:31.485Z,26.95
2018-05-09T22:25:59.062Z,26.95
2018-05-09T22:28:26.629Z,26.94
2018-05-09T22:30:54.205Z,26.91
2018-05-09T22:33:21.842Z,26.88
2018-05-09T22:35:49.411Z,26.86
2018-05-09T22:38:17.075Z,26.84
2018-05-09T22:40:44.651Z,26.81
2018-05-09T22:43:12.196Z,26.78
2018-05-09T22:45:39.832Z,26.75
2018-05-09T22:48:07.408Z,26.72
2018-05-09T22:50:34.984Z,26.69
2018-05-09T22:53:02.533Z,26.68
2018-05-09T22:55:30.124Z,26.66
2018-05-09T22:57:57.715Z,26.63
2018-05-09T23:00:25.995Z,26.60
2018-05-09T23:02:53.576Z,26.56
2018-05-09T23:05:21.126Z,26.51
2018-05-09T23:07:48.673Z,26.47
2018-05-09T23:10:16.341Z,26.40
2018-05-09T23:12:43.863Z,26.35
2018-05-09T23:15:11.405Z,26.29
2018-05-09T23:17:38.976Z,26.25
2018-05-09T23:20:06.509Z,26.19
2018-05-09T23:22:34.061Z,26.18
2018-05-09T23:25:01.608Z,26.17
2018-05-09T23:27:29.193Z,26.14
2018-05-09T23:29:56.762Z,26.13
2018-05-09T23:32:24.341Z,26.10
2018-05-09T23:34:51.914Z,26.04
2018-05-09T23:37:19.533Z,26.00
2018-05-09T23:39:48.150Z,25.94
2018-05-09T23:42:15.721Z,25.88
2018-05-09T23:44:43.281Z,25.82
2018-05-09T23:47:10.853Z,25.73
2018-05-09T23:49:38.393Z,25.67
2018-05-09T23:52:06.008Z,25.58
2018-05-09T23:54:33.512Z,25.51
2018-05-09T23:57:01.082Z,25.43
2018-05-09T23:59:28.616Z,25.39
